createdAt,value
2017-09-22T00:00:13.938Z,13.6
2017-09-22T00:01:15.306Z,13.5
2017-09-22T00:02:16.675Z,13.5
2017-09-22T00:03:18.046Z,13.5
2017-09-22T00:04:19.415Z,13.5
2017-09-22T00:05:20.789Z,13.5
2017-09-22T00:06:22.156Z,13.5
2017-09-22T00:07:23.527Z,13.5
2017-09-22T00:08:24.896Z,13.4
2017-09-22T00:09:26.265Z,13.4
2017-09-22T00:10:27.638Z,13.4
2017-09-22T00:11:29.016Z,13.4
2017-09-22T00:12:30.379Z,13.5
2017-09-22T00:13:31.747Z,13.4
2017-09-22T00:14:33.117Z,13.4
2017-09-22T00:15:34.493Z,13.4
2017-09-22T00:16:35.864Z,13.4
2017-09-22T00:17:37.233Z,13.4
2017-09-22T00:18:38.609Z,13.4
2017-09-22T00:19:39.978Z,13.3
2017-09-22T00:20:41.344Z,13.3
2017-09-22T00:21:42.714Z,13.2
2017-09-22T00:22:44.082Z,13.3
2017-09-22T00:23:45.454Z,13.2
2017-09-22T00:24:46.827Z,13.2
2017-09-22T00:25:48.201Z,13.2
2017-09-22T00:26:49.565Z,13.1
2017-09-22T00:27:50.940Z,13.2
2017-09-22T00:28:52.306Z,13.2
2017-09-22T00:29:53.676Z,13.1
2017-09-22T00:30:55.045Z,13.1
2017-09-22T00:31:56.416Z,13.1
2017-09-22T00:32:57.787Z,13.1
2017-09-22T00:33:59.154Z,13.0
2017-09-22T00:35:00.529Z,13.1
2017-09-22T00:36:01.898Z,13.0
2017-09-22T00:37:03.264Z,13.0
2017-09-22T00:38:04.634Z,13.0
2017-09-22T00:39:06.006Z,12.9
2017-09-22T00:40:07.374Z,13.0
2017-09-22T00:41:08.742Z,13.0
2017-09-22T00:42:10.115Z,13.0
2017-09-22T00:43:11.479Z,12.9
2017-09-22T00:44:12.849Z,12.9
2017-09-22T00:45:14.226Z,13.0
2017-09-22T00:46:15.593Z,13.0
2017-09-22T00:47:16.964Z,12.9
2017-09-22T00:48:18.334Z,12.9
2017-09-22T00:49:19.705Z,12.8
2017-09-22T00:50:21.070Z,12.9
2017-09-22T00:51:22.442Z,12.9
2017-09-22T00:52:23.816Z,12.9
2017-09-22T00:53:25.184Z,12.8
2017-09-22T00:54:26.553Z,13.0
2017-09-22T00:55:27.923Z,13.0
2017-09-22T00:56:29.293Z,12.9
2017-09-22T00:57:30.663Z,13.0
2017-09-22T00:58:32.032Z,13.0
2017-09-22T00:59:33.403Z,13.0
2017-09-22T01:00:34.772Z,13.0
2017-09-22T01:01:36.144Z,12.9
2017-09-22T01:02:37.512Z,12.9
2017-09-22T01:03:38.881Z,12.9
2017-09-22T01:04:40.243Z,12.9
2017-09-22T01:05:41.625Z,12.9
2017-09-22T01:06:42.992Z,12.9
2017-09-22T01:07:44.363Z,12.8
2017-09-22T01:08:45.734Z,12.9
2017-09-22T01:09:47.102Z,12.9
2017-09-22T01:10:48.471Z,12.8
2017-09-22T01:11:49.836Z,12.8
2017-09-22T01:12:51.210Z,12.8
2017-09-22T01:13:52.578Z,12.8
2017-09-22T01:14:53.950Z,12.7
2017-09-22T01:15:55.321Z,12.7
2017-09-22T01:16:56.686Z,12.6
2017-09-22T01:17:58.055Z,12.6
2017-09-22T01:18:59.428Z,12.6
2017-09-22T01:20:00.795Z,12.6
2017-09-22T01:21:02.166Z,12.6
2017-09-22T01:22:03.535Z,12.5
2017-09-22T01:23:04.907Z,12.5
2017-09-22T01:24:06.273Z,12.5
2017-09-22T01:25:07.646Z,12.4
2017-09-22T01:26:09.018Z,12.4
2017-09-22T01:27:10.388Z,12.4
2017-09-22T01:28:11.755Z,12.4
2017-09-22T01:29:13.129Z,12.4
2017-09-22T01:30:14.497Z,12.4
2017-09-22T01:31:15.869Z,12.4
2017-09-22T01:32:17.236Z,12.3
2017-09-22T01:33:18.605Z,12.3
2017-09-22T01:34:19.971Z,12.2
2017-09-22T01:35:21.343Z,12.3
2017-09-22T01:36:22.711Z,12.3
2017-09-22T01:37:24.085Z,12.2
2017-09-22T01:38:25.454Z,12.2
2017-09-22T01:39:26.825Z,12.3
2017-09-22T01:40:28.195Z,12.2
2017-09-22T01:41:29.563Z,12.3
2017-09-22T01:42:30.934Z,12.2
2017-09-22T01:43:32.305Z,12.2
2017-09-22T01:44:33.671Z,12.2
2017-09-22T01:45:35.051Z,12.2
2017-09-22T01:46:36.412Z,12.1
2017-09-22T01:47:37.778Z,12.0
2017-09-22T01:48:39.150Z,12.1
2017-09-22T01:49:40.518Z,12.1
2017-09-22T01:50:41.887Z,12.0
2017-09-22T01:51:43.259Z,12.1
2017-09-22T01:52:44.620Z,12.1
2017-09-22T01:53:45.995Z,12.1
2017-09-22T01:54:47.364Z,12.1
2017-09-22T01:55:48.737Z,12.1
2017-09-22T01:56:50.103Z,12.0
2017-09-22T01:57:51.472Z,12.0
2017-09-22T01:58:52.844Z,12.0
2017-09-22T01:59:54.212Z,12.0
2017-09-22T02:00:55.581Z,11.9
2017-09-22T02:01:56.950Z,11.9
2017-09-22T02:02:58.326Z,11.9
2017-09-22T02:03:59.688Z,11.9
2017-09-22T02:05:01.058Z,11.9
2017-09-22T02:06:02.437Z,11.9
2017-09-22T02:07:03.805Z,11.9
2017-09-22T02:08:05.179Z,11.9
2017-09-22T02:09:06.548Z,11.8
2017-09-22T02:10:07.918Z,11.8
2017-09-22T02:11:09.291Z,11.8
2017-09-22T02:12:10.656Z,11.8
2017-09-22T02:13:12.031Z,11.8
2017-09-22T02:14:13.394Z,11.8
2017-09-22T02:15:14.762Z,11.8
2017-09-22T02:16:16.131Z,11.8
2017-09-22T02:17:17.501Z,11.7
2017-09-22T02:18:18.871Z,11.7
2017-09-22T02:19:20.243Z,11.8
2017-09-22T02:20:21.613Z,11.7
2017-09-22T02:21:22.982Z,11.6
2017-09-22T02:22:24.353Z,11.7
2017-09-22T02:23:25.720Z,11.7
2017-09-22T02:24:27.086Z,11.6
2017-09-22T02:25:28.455Z,11.5
2017-09-22T02:26:29.829Z,11.6
2017-09-22T02:27:31.197Z,11.5
2017-09-22T02:28:32.563Z,11.5
2017-09-22T02:29:33.932Z,11.6
2017-09-22T02:30:35.303Z,11.5
2017-09-22T02:31:36.672Z,11.6
2017-09-22T02:32:38.040Z,11.5
2017-09-22T02:33:39.419Z,11.6
2017-09-22T02:34:40.789Z,11.6
2017-09-22T02:35:42.158Z,11.6
2017-09-22T02:36:43.525Z,11.6
2017-09-22T02:37:44.893Z,11.5
2017-09-22T02:38:46.259Z,11.5
2017-09-22T02:39:47.629Z,11.5
2017-09-22T02:40:48.999Z,11.4
2017-09-22T02:41:50.372Z,11.4
2017-09-22T02:42:51.738Z,11.6
2017-09-22T02:43:53.104Z,11.4
2017-09-22T02:44:54.474Z,11.4
2017-09-22T02:45:55.842Z,11.5
2017-09-22T02:46:57.210Z,11.5
2017-09-22T02:47:58.582Z,11.5
2017-09-22T02:48:59.956Z,11.4
2017-09-22T02:50:01.319Z,11.4
2017-09-22T02:51:02.685Z,11.4
2017-09-22T02:52:04.054Z,11.4
2017-09-22T02:53:05.424Z,11.4
2017-09-22T02:54:06.794Z,11.4
2017-09-22T02:55:08.164Z,11.5
2017-09-22T02:56:09.537Z,11.4
2017-09-22T02:57:10.905Z,11.5
2017-09-22T02:58:12.272Z,11.4
2017-09-22T02:59:13.636Z,11.5
2017-09-22T03:00:15.017Z,11.4
2017-09-22T03:01:16.386Z,11.5
2017-09-22T03:02:17.755Z,11.4
2017-09-22T03:03:19.131Z,11.4
2017-09-22T03:04:20.494Z,11.4
2017-09-22T03:05:21.861Z,11.4
2017-09-22T03:06:23.229Z,11.4
2017-09-22T03:07:24.597Z,11.5
2017-09-22T03:08:25.964Z,11.4
2017-09-22T03:09:27.337Z,11.4
2017-09-22T03:10:28.707Z,11.4
2017-09-22T03:11:30.074Z,11.4
2017-09-22T03:12:31.445Z,11.4
2017-09-22T03:13:32.812Z,11.4
2017-09-22T03:14:34.179Z,11.4
2017-09-22T03:15:35.542Z,11.4
2017-09-22T03:16:36.919Z,11.4
2017-09-22T03:17:38.287Z,11.4
2017-09-22T03:18:39.653Z,11.3
2017-09-22T03:19:41.020Z,11.3
2017-09-22T03:20:42.392Z,11.4
2017-09-22T03:21:43.761Z,11.4
2017-09-22T03:22:45.128Z,11.4
2017-09-22T03:23:46.501Z,11.4
2017-09-22T03:24:47.869Z,11.4
2017-09-22T03:25:49.248Z,11.4
2017-09-22T03:26:50.614Z,11.3
2017-09-22T03:27:51.983Z,11.4
2017-09-22T03:28:53.349Z,11.4
2017-09-22T03:29:54.717Z,11.3
2017-09-22T03:30:56.092Z,11.4
2017-09-22T03:31:57.460Z,11.3
2017-09-22T03:32:58.841Z,11.3
2017-09-22T03:34:00.197Z,11.1
2017-09-22T03:35:01.567Z,11.3
2017-09-22T03:36:02.938Z,11.3
2017-09-22T03:37:04.306Z,11.2
2017-09-22T03:38:05.676Z,11.2
2017-09-22T03:39:07.047Z,11.3
2017-09-22T03:40:08.413Z,11.3
2017-09-22T03:41:09.782Z,11.2
2017-09-22T03:42:11.168Z,11.3
2017-09-22T03:43:12.525Z,11.2
2017-09-22T03:44:13.892Z,11.2
2017-09-22T03:45:15.265Z,11.2
2017-09-22T03:46:16.635Z,11.2
2017-09-22T03:47:18.006Z,11.1
2017-09-22T03:48:19.376Z,11.2
2017-09-22T03:49:20.745Z,11.2
2017-09-22T03:50:22.111Z,11.3
2017-09-22T03:51:23.481Z,11.2
2017-09-22T03:52:24.851Z,11.2
2017-09-22T03:53:26.219Z,11.2
2017-09-22T03:54:27.595Z,11.1
2017-09-22T03:55:28.960Z,11.1
2017-09-22T03:56:30.325Z,11.1
2017-09-22T03:57:31.696Z,11.2
2017-09-22T03:58:33.069Z,11.2
2017-09-22T03:59:34.443Z,11.1
2017-09-22T04:00:35.812Z,11.0
2017-09-22T04:01:37.180Z,11.0
2017-09-22T04:02:38.549Z,11.0
2017-09-22T04:03:39.916Z,11.1
2017-09-22T04:04:41.286Z,11.1
2017-09-22T04:05:42.684Z,10.9
2017-09-22T04:06:44.027Z,11.0
2017-09-22T04:07:45.389Z,11.0
2017-09-22T04:08:46.757Z,11.0
2017-09-22T04:09:48.126Z,11.0
2017-09-22T04:10:49.492Z,11.0
2017-09-22T04:11:50.859Z,11.0
2017-09-22T04:12:52.231Z,11.0
2017-09-22T04:13:53.607Z,11.0
2017-09-22T04:14:54.976Z,11.0
2017-09-22T04:15:56.338Z,10.9
2017-09-22T04:16:57.707Z,11.1
2017-09-22T04:17:59.082Z,11.0
2017-09-22T04:19:00.450Z,11.1
2017-09-22T04:20:01.817Z,11.1
2017-09-22T04:21:03.188Z,11.0
2017-09-22T04:22:04.558Z,11.0
2017-09-22T04:23:05.925Z,11.1
2017-09-22T04:24:07.290Z,11.0
2017-09-22T04:25:08.661Z,11.0
2017-09-22T04:26:10.032Z,11.0
2017-09-22T04:27:11.400Z,10.9
2017-09-22T04:28:12.768Z,11.0
2017-09-22T04:29:14.142Z,11.0
2017-09-22T04:30:15.517Z,10.9
2017-09-22T04:31:16.885Z,10.9
2017-09-22T04:32:18.256Z,10.9
2017-09-22T04:33:19.625Z,10.9
2017-09-22T04:34:21.004Z,10.9
2017-09-22T04:35:22.368Z,10.9
2017-09-22T04:36:23.734Z,10.9
2017-09-22T04:37:25.106Z,10.8
2017-09-22T04:38:26.472Z,10.9
2017-09-22T04:39:27.843Z,10.8
2017-09-22T04:40:29.207Z,10.9
2017-09-22T04:41:30.580Z,10.9
2017-09-22T04:42:31.956Z,10.9
2017-09-22T04:43:33.324Z,10.9
2017-09-22T04:44:34.694Z,10.9
2017-09-22T04:45:36.062Z,10.9
2017-09-22T04:46:37.431Z,11.0
2017-09-22T04:47:38.800Z,10.9
2017-09-22T04:48:40.173Z,10.9
2017-09-22T04:49:41.539Z,11.0
2017-09-22T04:50:42.911Z,11.0
2017-09-22T04:51:44.277Z,11.0
2017-09-22T04:52:45.644Z,10.9
2017-09-22T04:53:47.013Z,11.0
2017-09-22T04:54:48.384Z,11.0
2017-09-22T04:55:49.757Z,11.0
2017-09-22T04:56:51.125Z,10.9
2017-09-22T04:57:52.496Z,11.0
2017-09-22T04:58:53.873Z,10.9
2017-09-22T04:59:55.234Z,11.0
2017-09-22T05:00:56.604Z,11.1
2017-09-22T05:01:57.974Z,11.0
2017-09-22T05:02:59.348Z,11.0
2017-09-22T05:04:00.711Z,11.1
2017-09-22T05:05:02.080Z,11.0
2017-09-22T05:06:03.452Z,11.1
2017-09-22T05:07:04.829Z,11.0
2017-09-22T05:08:06.191Z,11.1
2017-09-22T05:09:07.562Z,11.0
2017-09-22T05:10:08.931Z,11.0
2017-09-22T05:11:10.303Z,11.0
2017-09-22T05:12:11.676Z,11.0
2017-09-22T05:13:13.046Z,11.1
2017-09-22T05:14:14.413Z,11.0
2017-09-22T05:15:15.788Z,11.1
2017-09-22T05:16:17.159Z,11.1
2017-09-22T05:17:18.530Z,11.0
2017-09-22T05:18:19.937Z,11.1
2017-09-22T05:19:21.275Z,11.0
2017-09-22T05:20:22.649Z,11.0
2017-09-22T05:21:24.020Z,11.0
2017-09-22T05:22:25.391Z,11.0
2017-09-22T05:23:26.760Z,11.0
2017-09-22T05:24:28.133Z,11.0
2017-09-22T05:25:29.507Z,11.0
2017-09-22T05:26:30.881Z,11.1
2017-09-22T05:27:32.253Z,11.0
2017-09-22T05:28:33.620Z,11.1
2017-09-22T05:29:34.996Z,11.1
2017-09-22T05:30:36.366Z,11.1
2017-09-22T05:31:37.737Z,11.1
2017-09-22T05:32:39.118Z,11.2
2017-09-22T05:33:40.480Z,11.2
2017-09-22T05:34:41.853Z,11.2
2017-09-22T05:35:43.226Z,11.2
2017-09-22T05:36:44.596Z,11.2
2017-09-22T05:37:45.969Z,11.2
2017-09-22T05:38:47.339Z,11.1
2017-09-22T05:39:48.716Z,11.2
2017-09-22T05:40:50.094Z,11.2
2017-09-22T05:41:51.467Z,11.1
2017-09-22T05:42:52.838Z,11.1
2017-09-22T05:43:54.214Z,11.2
2017-09-22T05:44:55.587Z,11.2
2017-09-22T05:45:56.960Z,11.1
2017-09-22T05:46:58.331Z,11.1
2017-09-22T05:47:59.705Z,11.2
2017-09-22T05:49:01.103Z,11.3
2017-09-22T05:50:02.482Z,11.3
2017-09-22T05:51:03.849Z,11.3
2017-09-22T05:52:05.222Z,11.3
2017-09-22T05:53:06.629Z,11.3
2017-09-22T05:54:07.977Z,11.3
2017-09-22T05:55:09.350Z,11.4
2017-09-22T05:56:10.725Z,11.4
2017-09-22T05:57:12.097Z,11.6
2017-09-22T05:58:13.471Z,11.4
2017-09-22T05:59:14.852Z,11.4
2017-09-22T06:00:16.220Z,11.5
2017-09-22T06:01:17.592Z,11.6
2017-09-22T06:02:18.971Z,11.7
2017-09-22T06:03:20.347Z,11.7
2017-09-22T06:04:21.717Z,11.7
2017-09-22T06:05:23.093Z,11.6
2017-09-22T06:06:24.466Z,11.8
2017-09-22T06:07:25.838Z,11.8
2017-09-22T06:08:27.219Z,11.8
2017-09-22T06:09:28.674Z,11.9
2017-09-22T06:10:30.054Z,11.9
2017-09-22T06:11:31.431Z,12.0
2017-09-22T06:12:32.798Z,12.1
2017-09-22T06:13:34.177Z,12.0
2017-09-22T06:14:35.547Z,12.1
2017-09-22T06:15:36.927Z,12.1
2017-09-22T06:16:38.303Z,12.2
2017-09-22T06:17:39.677Z,12.2
2017-09-22T06:18:41.051Z,12.2
2017-09-22T06:19:42.426Z,12.3
2017-09-22T06:20:43.801Z,12.3
2017-09-22T06:21:45.189Z,12.3
2017-09-22T06:22:46.552Z,12.4
2017-09-22T06:23:47.928Z,12.5
2017-09-22T06:24:49.299Z,12.5
2017-09-22T06:25:50.677Z,12.6
2017-09-22T06:26:52.052Z,12.6
2017-09-22T06:27:53.428Z,12.6
2017-09-22T06:28:54.815Z,12.6
2017-09-22T06:29:57.965Z,12.7
2017-09-22T06:30:59.324Z,12.7
2017-09-22T06:32:00.709Z,12.7
2017-09-22T06:33:02.085Z,12.8
2017-09-22T06:34:03.459Z,12.8
2017-09-22T06:35:04.836Z,13.0
2017-09-22T06:36:06.205Z,12.9
2017-09-22T06:37:07.596Z,13.0
2017-09-22T06:38:08.974Z,13.1
2017-09-22T06:39:10.346Z,13.0
2017-09-22T06:40:11.723Z,13.1
2017-09-22T06:41:13.097Z,13.3
2017-09-22T06:42:14.473Z,13.2
2017-09-22T06:43:15.847Z,13.4
2017-09-22T06:44:17.224Z,13.5
2017-09-22T06:45:18.599Z,13.6
2017-09-22T06:46:19.976Z,14.0
2017-09-22T06:47:21.351Z,14.1
2017-09-22T06:48:22.727Z,14.3
2017-09-22T06:49:24.102Z,14.5
2017-09-22T06:50:25.478Z,14.8
2017-09-22T06:51:26.858Z,14.8
2017-09-22T06:52:28.240Z,14.8
2017-09-22T06:53:29.615Z,14.8
2017-09-22T06:54:30.989Z,14.9
2017-09-22T06:55:32.367Z,15.2
2017-09-22T06:56:33.748Z,15.3
2017-09-22T06:57:35.122Z,15.1
2017-09-22T06:58:36.509Z,15.2
2017-09-22T06:59:37.886Z,15.3
2017-09-22T07:00:39.263Z,15.1
2017-09-22T07:01:40.639Z,15.3
2017-09-22T07:02:42.020Z,15.7
2017-09-22T07:03:43.394Z,15.7
2017-09-22T07:04:44.784Z,15.7
2017-09-22T07:05:46.152Z,15.9
2017-09-22T07:06:47.531Z,15.9
2017-09-22T07:07:48.908Z,15.6
2017-09-22T07:08:50.285Z,15.7
2017-09-22T07:09:51.666Z,15.5
2017-09-22T07:10:53.043Z,15.7
2017-09-22T07:11:54.421Z,15.8
2017-09-22T07:12:55.802Z,15.9
2017-09-22T07:13:57.196Z,16.0
2017-09-22T07:14:58.565Z,16.0
2017-09-22T07:15:59.955Z,16.1
2017-09-22T07:17:01.326Z,16.3
2017-09-22T07:18:02.718Z,16.6
2017-09-22T07:19:04.099Z,16.7
2017-09-22T07:20:05.478Z,16.7
2017-09-22T07:21:06.859Z,16.9
2017-09-22T07:22:08.239Z,17.1
2017-09-22T07:23:09.618Z,17.3
2017-09-22T07:24:11.001Z,17.5
2017-09-22T07:25:12.376Z,17.7
2017-09-22T07:26:13.765Z,17.7
2017-09-22T07:27:15.140Z,18.0
2017-09-22T07:28:16.528Z,18.1
2017-09-22T07:29:17.903Z,18.4
2017-09-22T07:30:19.285Z,18.5
2017-09-22T07:31:20.664Z,18.7
2017-09-22T07:32:22.046Z,18.8
2017-09-22T07:33:23.428Z,19.3
2017-09-22T07:34:24.810Z,19.5
2017-09-22T07:35:26.192Z,19.7
2017-09-22T07:36:27.573Z,20.0
2017-09-22T07:37:28.953Z,20.4
2017-09-22T07:38:30.339Z,20.3
2017-09-22T07:39:31.722Z,20.3
2017-09-22T07:40:33.104Z,20.5
2017-09-22T07:41:34.487Z,20.1
2017-09-22T07:42:35.873Z,20.0
2017-09-22T07:43:37.253Z,20.2
2017-09-22T07:44:38.635Z,20.4
2017-09-22T07:45:40.020Z,20.8
2017-09-22T07:46:41.404Z,21.0
2017-09-22T07:47:42.789Z,21.2
2017-09-22T07:48:44.179Z,21.3
2017-09-22T07:49:45.585Z,21.5
2017-09-22T07:50:46.947Z,21.5
2017-09-22T07:51:48.332Z,21.7
2017-09-22T07:52:49.717Z,22.0
2017-09-22T07:53:51.100Z,22.3
2017-09-22T07:54:52.483Z,22.3
2017-09-22T07:55:53.873Z,22.2
2017-09-22T07:56:55.269Z,22.3
2017-09-22T07:57:56.652Z,22.4
2017-09-22T07:58:58.035Z,22.4
2017-09-22T07:59:59.440Z,22.5
2017-09-22T08:01:00.809Z,22.4
2017-09-22T08:02:02.201Z,22.6
2017-09-22T08:03:03.581Z,22.5
2017-09-22T08:04:04.979Z,22.6
2017-09-22T08:05:06.368Z,22.7
2017-09-22T08:06:07.753Z,22.5
2017-09-22T08:07:09.140Z,22.4
2017-09-22T08:08:10.528Z,22.5
2017-09-22T08:09:11.916Z,22.7
2017-09-22T08:10:13.302Z,22.8
2017-09-22T08:11:14.698Z,23.0
2017-09-22T08:12:16.076Z,22.9
2017-09-22T08:13:17.462Z,22.5
2017-09-22T08:14:18.855Z,22.6
2017-09-22T08:15:20.237Z,22.8
2017-09-22T08:17:02.639Z,22.7
2017-09-22T08:18:04.026Z,22.8
2017-09-22T08:19:05.410Z,22.5
2017-09-22T08:20:06.797Z,22.5
2017-09-22T08:21:08.183Z,22.4
2017-09-22T08:22:09.570Z,22.5
2017-09-22T08:23:10.956Z,22.6
2017-09-22T08:24:12.344Z,22.7
2017-09-22T08:25:13.730Z,22.6
2017-09-22T08:26:15.115Z,22.6
2017-09-22T08:27:16.505Z,22.9
2017-09-22T08:28:17.893Z,23.1
2017-09-22T08:29:19.293Z,23.0
2017-09-22T08:30:20.672Z,23.5
2017-09-22T08:31:22.060Z,23.8
2017-09-22T08:33:04.437Z,24.0
2017-09-22T08:34:05.823Z,24.1
2017-09-22T08:35:07.218Z,24.1
2017-09-22T08:36:08.602Z,23.9
2017-09-22T08:37:09.998Z,23.9
2017-09-22T08:38:11.375Z,23.7
2017-09-22T08:39:12.769Z,23.9
2017-09-22T08:40:14.164Z,24.1
2017-09-22T08:41:15.548Z,24.2
2017-09-22T08:42:16.932Z,24.0
2017-09-22T08:43:18.311Z,24.0
2017-09-22T08:44:19.718Z,23.8
2017-09-22T08:45:21.101Z,24.2
2017-09-22T08:46:22.488Z,24.2
2017-09-22T08:47:23.877Z,24.6
2017-09-22T08:48:25.259Z,24.5
2017-09-22T08:49:26.646Z,24.6
2017-09-22T08:50:28.033Z,24.8
2017-09-22T08:51:29.419Z,24.9
2017-09-22T08:52:30.805Z,25.2
2017-09-22T08:53:32.194Z,25.7
2017-09-22T08:54:33.581Z,26.0
2017-09-22T08:55:34.987Z,26.3
2017-09-22T08:56:36.375Z,26.1
2017-09-22T08:57:37.759Z,26.0
2017-09-22T08:58:39.152Z,26.0
2017-09-22T08:59:40.543Z,25.7
2017-09-22T09:00:41.926Z,25.6
2017-09-22T09:01:43.316Z,25.3
2017-09-22T09:02:44.710Z,25.7
2017-09-22T09:03:46.098Z,25.8
2017-09-22T09:04:47.489Z,26.0
2017-09-22T09:05:48.880Z,25.9
2017-09-22T09:06:50.270Z,25.9
2017-09-22T09:07:51.658Z,25.5
2017-09-22T09:08:53.050Z,25.6
2017-09-22T09:09:54.464Z,25.6
2017-09-22T09:10:55.827Z,25.4
2017-09-22T09:11:57.219Z,25.2
2017-09-22T09:12:58.604Z,25.0
2017-09-22T09:13:59.994Z,25.2
2017-09-22T09:15:01.382Z,25.3
2017-09-22T09:16:02.771Z,25.3
2017-09-22T09:17:04.167Z,25.7
2017-09-22T09:18:05.553Z,25.8
2017-09-22T09:19:06.944Z,26.1
2017-09-22T09:20:08.338Z,26.1
2017-09-22T09:21:09.726Z,25.9
2017-09-22T09:22:11.114Z,26.1
2017-09-22T09:23:12.502Z,26.2
2017-09-22T09:24:13.893Z,26.1
2017-09-22T09:25:15.277Z,26.1
2017-09-22T09:26:16.680Z,26.2
2017-09-22T09:27:18.067Z,26.0
2017-09-22T09:28:19.454Z,26.4
2017-09-22T09:29:20.844Z,26.4
2017-09-22T09:30:22.230Z,26.4
2017-09-22T09:31:23.626Z,26.7
2017-09-22T09:32:25.006Z,26.7
2017-09-22T09:33:26.394Z,26.8
2017-09-22T09:34:27.783Z,26.8
2017-09-22T09:35:29.174Z,27.1
2017-09-22T09:36:30.565Z,27.1
2017-09-22T09:37:31.955Z,26.7
2017-09-22T09:38:33.346Z,26.8
2017-09-22T09:39:34.737Z,26.9
2017-09-22T09:40:36.138Z,26.7
2017-09-22T09:41:37.517Z,27.1
2017-09-22T09:42:38.907Z,27.4
2017-09-22T09:43:40.318Z,27.4
2017-09-22T09:44:41.714Z,27.7
2017-09-22T09:45:43.091Z,27.9
2017-09-22T09:46:44.476Z,27.9
2017-09-22T09:47:45.868Z,27.8
2017-09-22T09:48:47.258Z,27.9
2017-09-22T09:49:48.649Z,27.9
2017-09-22T09:50:50.054Z,27.9
2017-09-22T09:51:51.447Z,27.6
2017-09-22T09:52:52.833Z,27.6
2017-09-22T09:53:54.241Z,27.7
2017-09-22T09:54:55.676Z,27.8
2017-09-22T09:55:57.134Z,27.9
2017-09-22T09:56:58.561Z,27.7
2017-09-22T09:57:59.955Z,27.8
2017-09-22T09:59:01.347Z,27.8
2017-09-22T10:00:02.738Z,27.7
2017-09-22T10:01:04.123Z,27.4
2017-09-22T10:02:05.514Z,27.3
2017-09-22T10:03:06.905Z,27.4
2017-09-22T10:04:08.296Z,27.4
2017-09-22T10:05:09.688Z,27.5
2017-09-22T10:06:11.077Z,27.2
2017-09-22T10:07:12.470Z,27.2
2017-09-22T10:08:13.861Z,27.1
2017-09-22T10:09:15.257Z,27.1
2017-09-22T10:10:16.647Z,27.4
2017-09-22T10:11:18.035Z,27.6
2017-09-22T10:12:19.432Z,27.8
2017-09-22T10:13:20.833Z,27.7
2017-09-22T10:14:22.218Z,27.8
2017-09-22T10:15:23.607Z,27.9
2017-09-22T10:16:25.001Z,27.6
2017-09-22T10:17:26.394Z,27.9
2017-09-22T10:18:27.783Z,28.0
2017-09-22T10:19:29.172Z,28.3
2017-09-22T10:20:30.567Z,28.4
2017-09-22T10:21:31.957Z,28.7
2017-09-22T10:22:33.346Z,28.9
2017-09-22T10:23:34.744Z,28.8
2017-09-22T10:24:36.128Z,28.8
2017-09-22T10:25:37.525Z,29.1
2017-09-22T10:26:38.918Z,29.4
2017-09-22T10:27:40.312Z,29.4
2017-09-22T10:28:41.702Z,29.3
2017-09-22T10:29:43.096Z,29.0
2017-09-22T10:30:44.491Z,28.8
2017-09-22T10:31:45.882Z,29.0
2017-09-22T10:32:47.296Z,28.9
2017-09-22T10:33:48.671Z,29.0
2017-09-22T10:34:50.072Z,29.1
2017-09-22T10:35:51.468Z,29.4
2017-09-22T10:36:52.862Z,29.5
2017-09-22T10:37:54.257Z,29.6
2017-09-22T10:38:55.660Z,29.2
2017-09-22T10:39:57.049Z,29.4
2017-09-22T10:40:58.447Z,29.3
2017-09-22T10:41:59.840Z,29.1
2017-09-22T10:43:01.234Z,29.1
2017-09-22T10:44:02.625Z,29.1
2017-09-22T10:45:04.017Z,29.3
2017-09-22T10:46:05.414Z,29.2
2017-09-22T10:47:06.807Z,29.4
2017-09-22T10:48:08.204Z,29.6
2017-09-22T10:49:09.597Z,29.8
2017-09-22T10:50:10.991Z,29.9
2017-09-22T10:51:12.385Z,30.2
2017-09-22T10:52:13.781Z,30.4
2017-09-22T10:53:15.176Z,30.7
2017-09-22T10:54:16.564Z,31.0
2017-09-22T10:55:17.962Z,30.9
2017-09-22T10:56:19.359Z,30.8
2017-09-22T10:57:20.752Z,30.6
2017-09-22T10:58:22.147Z,30.3
2017-09-22T10:59:23.544Z,30.2
2017-09-22T11:00:24.938Z,30.5
2017-09-22T11:01:26.331Z,30.7
2017-09-22T11:02:27.725Z,30.5
2017-09-22T11:03:29.122Z,30.4
2017-09-22T11:04:30.518Z,30.2
2017-09-22T11:05:31.911Z,30.1
2017-09-22T11:06:33.305Z,29.2
2017-09-22T11:07:34.700Z,29.8
2017-09-22T11:08:36.097Z,30.1
2017-09-22T11:09:37.493Z,30.4
2017-09-22T11:10:38.887Z,30.4
2017-09-22T11:11:40.330Z,30.5
2017-09-22T11:12:41.721Z,30.4
2017-09-22T11:13:43.121Z,30.7
2017-09-22T11:14:44.513Z,30.8
2017-09-22T11:15:45.914Z,30.8
2017-09-22T11:16:47.306Z,30.8
2017-09-22T11:17:48.703Z,30.6
2017-09-22T11:18:50.098Z,30.2
2017-09-22T11:19:51.504Z,29.8
2017-09-22T11:20:52.886Z,29.6
2017-09-22T11:21:54.282Z,29.3
2017-09-22T11:22:55.673Z,29.2
2017-09-22T11:23:57.073Z,28.8
2017-09-22T11:24:58.467Z,28.5
2017-09-22T11:25:59.861Z,28.4
2017-09-22T11:27:01.255Z,28.2
2017-09-22T11:28:02.646Z,28.3
2017-09-22T11:29:04.039Z,28.2
2017-09-22T11:30:05.433Z,27.9
2017-09-22T11:31:06.825Z,27.6
2017-09-22T11:32:08.222Z,27.4
2017-09-22T11:33:09.618Z,27.1
2017-09-22T11:34:11.007Z,27.2
2017-09-22T11:35:12.401Z,27.3
2017-09-22T11:36:13.791Z,27.5
2017-09-22T11:37:15.186Z,27.2
2017-09-22T11:38:16.580Z,27.0
2017-09-22T11:39:17.972Z,27.0
2017-09-22T11:40:19.359Z,27.2
2017-09-22T11:41:20.772Z,27.2
2017-09-22T11:42:22.145Z,27.2
2017-09-22T11:43:23.536Z,26.9
2017-09-22T11:44:24.924Z,26.8
2017-09-22T11:45:26.316Z,27.3
2017-09-22T11:46:27.709Z,27.5
2017-09-22T11:47:29.102Z,27.8
2017-09-22T11:48:30.491Z,28.0
2017-09-22T11:49:31.881Z,28.1
2017-09-22T11:50:33.275Z,28.6
2017-09-22T11:51:34.663Z,28.8
2017-09-22T11:52:36.067Z,29.2
2017-09-22T11:53:37.461Z,29.4
2017-09-22T11:54:38.855Z,29.4
2017-09-22T11:55:40.240Z,29.0
2017-09-22T11:56:41.636Z,29.3
2017-09-22T11:57:43.025Z,29.4
2017-09-22T11:58:44.419Z,29.8
2017-09-22T11:59:45.814Z,29.5
2017-09-22T12:00:47.204Z,29.8
2017-09-22T12:01:48.599Z,29.9
2017-09-22T12:02:49.990Z,29.6
2017-09-22T12:03:51.385Z,29.3
2017-09-22T12:04:52.779Z,29.3
2017-09-22T12:05:54.199Z,29.3
2017-09-22T12:06:55.597Z,29.1
2017-09-22T12:07:56.996Z,29.0
2017-09-22T12:08:58.388Z,29.0
2017-09-22T12:09:59.779Z,28.5
2017-09-22T12:11:01.172Z,28.3
2017-09-22T12:12:02.571Z,28.4
2017-09-22T12:13:03.961Z,28.5
2017-09-22T12:14:05.361Z,28.5
2017-09-22T12:15:06.753Z,28.3
2017-09-22T12:16:08.143Z,28.2
2017-09-22T12:17:09.535Z,28.2
2017-09-22T12:18:10.928Z,28.1
2017-09-22T12:19:12.318Z,28.3
2017-09-22T12:20:13.713Z,28.2
2017-09-22T12:21:15.102Z,28.2
2017-09-22T12:22:16.494Z,28.3
2017-09-22T12:23:17.885Z,28.3
2017-09-22T12:24:19.284Z,28.4
2017-09-22T12:25:20.667Z,28.4
2017-09-22T12:26:22.059Z,28.3
2017-09-22T12:27:23.453Z,28.2
2017-09-22T12:28:24.842Z,28.5
2017-09-22T12:29:26.243Z,28.6
2017-09-22T12:30:27.630Z,28.8
2017-09-22T12:31:29.022Z,28.8
2017-09-22T12:32:30.425Z,28.6
2017-09-22T12:33:31.802Z,28.5
2017-09-22T12:34:33.192Z,28.6
2017-09-22T12:35:34.582Z,28.9
2017-09-22T12:36:35.982Z,29.1
2017-09-22T12:37:37.371Z,29.4
2017-09-22T12:38:38.767Z,29.6
2017-09-22T12:39:40.158Z,29.8
2017-09-22T12:40:41.555Z,29.8
2017-09-22T12:41:42.951Z,29.9
2017-09-22T12:42:44.360Z,29.8
2017-09-22T12:43:45.741Z,29.3
2017-09-22T12:44:47.133Z,29.5
2017-09-22T12:45:48.524Z,29.3
2017-09-22T12:46:49.915Z,29.5
2017-09-22T12:47:51.307Z,29.5
2017-09-22T12:48:52.698Z,29.6
2017-09-22T12:49:54.092Z,29.8
2017-09-22T12:50:55.485Z,29.7
2017-09-22T12:51:56.893Z,29.5
2017-09-22T12:52:58.296Z,29.8
2017-09-22T12:53:59.683Z,29.3
2017-09-22T12:55:01.074Z,29.2
2017-09-22T12:56:02.469Z,29.2
2017-09-22T12:57:03.863Z,29.0
2017-09-22T12:58:05.258Z,28.8
2017-09-22T12:59:06.652Z,28.8
2017-09-22T13:00:08.037Z,28.8
2017-09-22T13:01:09.434Z,28.7
2017-09-22T13:02:10.819Z,28.1
2017-09-22T13:03:12.211Z,27.9
2017-09-22T13:04:13.604Z,27.8
2017-09-22T13:05:15.017Z,27.8
2017-09-22T13:06:16.404Z,27.8
2017-09-22T13:07:17.793Z,27.4
2017-09-22T13:08:19.184Z,27.4
2017-09-22T13:09:20.576Z,27.1
2017-09-22T13:10:21.965Z,27.1
2017-09-22T13:11:23.363Z,27.1
2017-09-22T13:12:24.756Z,27.0
2017-09-22T13:13:26.142Z,27.1
2017-09-22T13:14:27.536Z,27.3
2017-09-22T13:15:28.933Z,27.3
2017-09-22T13:16:30.314Z,27.2
2017-09-22T13:17:31.705Z,26.7
2017-09-22T13:18:33.105Z,26.7
2017-09-22T13:19:34.495Z,26.8
2017-09-22T13:20:35.884Z,26.9
2017-09-22T13:21:37.270Z,27.1
2017-09-22T13:22:38.659Z,27.3
2017-09-22T13:23:40.059Z,27.5
2017-09-22T13:24:41.441Z,27.6
2017-09-22T13:25:42.839Z,27.7
2017-09-22T13:26:44.235Z,27.8
2017-09-22T13:27:45.645Z,27.8
2017-09-22T13:28:47.067Z,27.7
2017-09-22T13:29:48.470Z,27.7
2017-09-22T13:30:49.860Z,27.9
2017-09-22T13:31:51.254Z,28.0
2017-09-22T13:32:52.648Z,28.1
2017-09-22T13:33:54.034Z,28.3
2017-09-22T13:34:55.420Z,28.2
2017-09-22T13:35:56.817Z,27.9
2017-09-22T13:36:58.203Z,27.7
2017-09-22T13:37:59.588Z,27.6